createdAt,value
2022-08-29T00:00:19.224Z,75.71
2022-08-29T00:01:23.294Z,75.42
2022-08-29T00:02:27.982Z,75.54
2022-08-29T00:03:31.989Z,75.25
2022-08-29T00:04:34.463Z,75.27
2022-08-29T00:05:38.185Z,75.05
2022-08-29T00:06:42.281Z,74.81
2022-08-29T00:07:44.565Z,74.67
2022-08-29T00:08:46.589Z,73.87
2022-08-29T00:09:48.665Z,73.48
2022-08-29T00:10:50.909Z,73.07
2022-08-29T00:11:53.057Z,73.08
2022-08-29T00:12:57.820Z,73.11
2022-08-29T00:14:00.241Z,72.88
2022-08-29T00:15:04.178Z,73.01
2022-08-29T00:16:07.305Z,72.80
2022-08-29T00:17:09.486Z,72.89
2022-08-29T00:18:13.767Z,72.72
2022-08-29T00:19:16.151Z,72.66
2022-08-29T00:20:22.964Z,73.00
2022-08-29T00:21:26.711Z,73.34
2022-08-29T00:22:28.772Z,73.52
2022-08-29T00:23:31.231Z,73.77
2022-08-29T00:24:33.588Z,74.03
2022-08-29T00:25:36.318Z,74.30
2022-08-29T00:26:38.672Z,74.67
2022-08-29T00:27:41.128Z,74.83
2022-08-29T00:28:45.140Z,75.30
2022-08-29T00:29:47.755Z,75.30
2022-08-29T00:30:50.455Z,75.25
2022-08-29T00:31:52.564Z,75.02
2022-08-29T00:32:54.759Z,74.79
2022-08-29T00:33:56.832Z,74.68
2022-08-29T00:34:59.490Z,74.61
2022-08-29T00:36:01.673Z,74.65
2022-08-29T00:37:05.650Z,74.82
2022-08-29T00:38:11.256Z,73.93
2022-08-29T00:39:13.503Z,73.42
2022-08-29T00:40:20.019Z,73.39
2022-08-29T00:41:22.776Z,73.48
2022-08-29T00:42:25.039Z,73.15
2022-08-29T00:43:30.640Z,73.15
2022-08-29T00:44:32.847Z,73.07
2022-08-29T00:45:38.152Z,73.12
2022-08-29T00:46:43.856Z,72.79
2022-08-29T00:49:11.950Z,72.08
2022-08-29T00:50:18.634Z,72.65
2022-08-29T00:51:22.033Z,72.14
2022-08-29T00:52:33.480Z,72.61
2022-08-29T00:53:39.214Z,72.78
2022-08-29T00:54:44.264Z,73.24
2022-08-29T00:55:48.328Z,73.82
2022-08-29T00:57:00.054Z,74.02
2022-08-29T00:58:06.310Z,73.96
2022-08-29T00:59:14.816Z,74.37
2022-08-29T01:00:17.548Z,74.59
2022-08-29T01:01:20.337Z,74.75
2022-08-29T01:02:22.936Z,74.52
2022-08-29T01:03:26.680Z,74.41
2022-08-29T01:04:28.878Z,74.26
2022-08-29T01:05:31.624Z,73.75
2022-08-29T01:06:33.946Z,73.54
2022-08-29T01:07:38.022Z,73.72
2022-08-29T01:08:42.600Z,73.41
2022-08-29T01:09:44.742Z,73.23
2022-08-29T01:10:47.275Z,73.35
2022-08-29T01:11:49.816Z,73.21
2022-08-29T01:12:52.001Z,73.25
2022-08-29T01:13:54.836Z,73.44
2022-08-29T01:15:06.815Z,73.61
2022-08-29T01:16:11.952Z,74.36
2022-08-29T01:17:18.250Z,74.13
2022-08-29T01:18:21.179Z,73.77
2022-08-29T01:20:00.513Z,73.09
2022-08-29T01:21:21.485Z,72.89
2022-08-29T01:22:39.269Z,72.55
2022-08-29T01:24:11.366Z,73.05
2022-08-29T01:25:17.084Z,73.47
2022-08-29T01:26:20.309Z,74.36
2022-08-29T01:27:25.968Z,74.41
2022-08-29T01:28:37.586Z,74.31
2022-08-29T01:29:40.786Z,74.53
2022-08-29T01:31:14.217Z,74.72
2022-08-29T01:32:18.445Z,74.51
2022-08-29T01:33:21.592Z,74.15
2022-08-29T01:34:26.580Z,74.37
2022-08-29T01:35:29.178Z,74.38
2022-08-29T01:36:47.354Z,74.38
2022-08-29T01:37:50.307Z,74.50
2022-08-29T01:38:52.618Z,74.59
2022-08-29T01:39:54.670Z,74.75
2022-08-29T01:40:58.455Z,74.82
2022-08-29T01:42:03.784Z,74.47
2022-08-29T01:43:05.908Z,74.09
2022-08-29T01:44:11.421Z,74.09
2022-08-29T01:45:13.521Z,74.29
2022-08-29T01:46:20.255Z,74.55
2022-08-29T01:47:25.076Z,74.89
2022-08-29T01:48:27.206Z,75.26
2022-08-29T01:49:31.088Z,75.35
2022-08-29T01:50:34.011Z,74.98
2022-08-29T01:51:37.153Z,74.93
2022-08-29T01:52:40.951Z,75.48
2022-08-29T01:53:44.106Z,75.61
2022-08-29T01:54:46.622Z,75.66
2022-08-29T01:55:48.679Z,76.24
2022-08-29T01:56:52.576Z,76.18
2022-08-29T01:57:55.018Z,75.92
2022-08-29T01:59:00.727Z,75.55
2022-08-29T02:00:05.817Z,75.88
2022-08-29T02:01:10.307Z,75.94
2022-08-29T02:02:20.254Z,75.94
2022-08-29T02:03:22.590Z,76.15
2022-08-29T02:04:26.012Z,76.21
2022-08-29T02:05:29.465Z,76.21
2022-08-29T02:06:33.430Z,75.82
2022-08-29T02:07:35.599Z,76.12
2022-08-29T02:08:38.736Z,76.46
2022-08-29T02:09:45.534Z,76.22
2022-08-29T02:10:44.943Z,76.09
2022-08-29T02:11:47.093Z,76.41
2022-08-29T02:12:49.236Z,76.43
2022-08-29T02:13:57.418Z,76.22
2022-08-29T02:15:00.250Z,76.10
2022-08-29T02:16:03.302Z,75.87
2022-08-29T02:17:06.882Z,75.97
2022-08-29T02:18:09.132Z,76.23
2022-08-29T02:19:11.735Z,76.17
2022-08-29T02:20:15.598Z,76.24
2022-08-29T02:21:20.789Z,76.44
2022-08-29T02:22:22.999Z,76.25
2022-08-29T02:23:30.808Z,76.12
2022-08-29T02:24:30.609Z,76.45
2022-08-29T02:25:32.590Z,76.76
2022-08-29T02:26:36.451Z,77.42
2022-08-29T02:27:39.067Z,77.55
2022-08-29T02:28:41.226Z,78.00
2022-08-29T02:29:43.426Z,78.39
2022-08-29T02:30:48.754Z,78.45
2022-08-29T02:31:53.185Z,78.82
2022-08-29T02:32:55.488Z,78.97
2022-08-29T02:33:57.543Z,79.32
2022-08-29T02:34:59.730Z,79.44
2022-08-29T02:36:04.165Z,79.25
2022-08-29T02:37:06.884Z,79.34
2022-08-29T02:38:10.896Z,79.53
2022-08-29T02:39:13.072Z,79.85
2022-08-29T02:40:15.983Z,79.89
2022-08-29T02:41:18.306Z,79.96
2022-08-29T02:42:20.544Z,79.84
2022-08-29T02:43:22.991Z,79.76
2022-08-29T02:44:25.046Z,79.87
2022-08-29T02:45:27.683Z,79.83
2022-08-29T02:46:30.633Z,79.96
2022-08-29T02:47:33.632Z,80.05
2022-08-29T02:48:35.789Z,80.05
2022-08-29T02:49:37.853Z,80.11
2022-08-29T02:50:48.375Z,80.12
2022-08-29T02:51:50.590Z,80.08
2022-08-29T02:52:53.150Z,80.17
2022-08-29T02:53:55.909Z,80.27
2022-08-29T02:54:57.929Z,80.26
2022-08-29T02:56:00.008Z,80.41
2022-08-29T02:57:02.255Z,80.52
2022-08-29T02:58:05.295Z,80.56
2022-08-29T02:59:08.029Z,80.71
2022-08-29T03:00:18.088Z,80.73
2022-08-29T03:01:22.339Z,80.81
2022-08-29T03:02:24.914Z,80.70
2022-08-29T03:03:26.963Z,80.53
2022-08-29T03:04:29.128Z,80.46
2022-08-29T03:05:33.144Z,80.49
2022-08-29T03:06:35.366Z,80.55
2022-08-29T03:07:38.113Z,80.46
2022-08-29T03:08:40.167Z,80.42
2022-08-29T03:09:42.232Z,80.52
2022-08-29T03:10:44.747Z,80.34
2022-08-29T03:11:46.906Z,79.96
2022-08-29T03:12:50.492Z,79.88
2022-08-29T03:13:52.626Z,79.71
2022-08-29T03:14:56.637Z,79.80
2022-08-29T03:15:59.235Z,80.14
2022-08-29T03:17:01.558Z,80.11
2022-08-29T03:18:04.247Z,80.09
2022-08-29T03:19:06.300Z,80.68
2022-08-29T03:20:10.964Z,80.68
2022-08-29T03:21:15.887Z,80.54
2022-08-29T03:22:18.548Z,80.26
2022-08-29T03:23:21.090Z,79.87
2022-08-29T03:24:27.017Z,79.96
2022-08-29T03:25:27.664Z,79.66
2022-08-29T03:26:29.918Z,79.68
2022-08-29T03:27:33.425Z,79.64
2022-08-29T03:28:35.537Z,79.73
2022-08-29T03:29:37.623Z,79.82
2022-08-29T03:30:40.304Z,79.68
2022-08-29T03:31:42.565Z,79.36
2022-08-29T03:32:44.866Z,79.35
2022-08-29T03:33:47.209Z,79.37
2022-08-29T03:34:49.211Z,78.66
2022-08-29T03:35:51.163Z,78.49
2022-08-29T03:36:54.201Z,78.10
2022-08-29T03:37:57.125Z,77.78
2022-08-29T03:38:59.236Z,77.82
2022-08-29T03:40:03.084Z,78.01
2022-08-29T03:41:07.008Z,78.04
2022-08-29T03:42:09.512Z,78.13
2022-08-29T03:43:11.544Z,77.81
2022-08-29T03:44:14.010Z,77.81
2022-08-29T03:45:18.934Z,77.83
2022-08-29T03:46:22.086Z,77.59
2022-08-29T03:47:24.617Z,77.96
2022-08-29T03:48:27.232Z,77.51
2022-08-29T03:49:29.786Z,77.45
2022-08-29T03:50:32.472Z,77.12
2022-08-29T03:51:35.439Z,76.69
2022-08-29T03:52:37.563Z,76.40
2022-08-29T03:53:41.740Z,76.40
2022-08-29T03:54:43.700Z,76.66
2022-08-29T03:55:45.840Z,76.77
2022-08-29T03:56:48.689Z,76.62
2022-08-29T03:57:51.154Z,76.75
2022-08-29T03:58:54.452Z,76.74
2022-08-29T03:59:56.531Z,76.80
2022-08-29T04:00:59.211Z,76.77
2022-08-29T04:02:01.934Z,76.60
2022-08-29T04:03:04.270Z,76.67
2022-08-29T04:04:06.393Z,76.67
2022-08-29T04:05:09.610Z,76.96
2022-08-29T04:06:12.287Z,76.77
2022-08-29T04:07:15.273Z,76.66
2022-08-29T04:08:17.426Z,76.46
2022-08-29T04:09:19.959Z,76.73
2022-08-29T04:10:26.133Z,77.40
2022-08-29T04:11:28.418Z,77.32
2022-08-29T04:12:30.478Z,77.31
2022-08-29T04:13:32.419Z,77.52
2022-08-29T04:14:34.941Z,77.14
2022-08-29T04:15:39.993Z,77.19
2022-08-29T04:16:45.827Z,77.00
2022-08-29T04:17:51.075Z,77.11
2022-08-29T04:18:54.556Z,76.94
2022-08-29T04:19:56.729Z,76.47
2022-08-29T04:21:01.540Z,76.16
2022-08-29T04:22:05.058Z,75.84
2022-08-29T04:23:07.860Z,75.55
2022-08-29T04:24:09.944Z,75.17
2022-08-29T04:25:13.478Z,74.99
2022-08-29T04:27:22.939Z,74.83
2022-08-29T04:28:25.482Z,74.71
2022-08-29T04:29:27.652Z,74.52
2022-08-29T04:30:30.090Z,74.66
2022-08-29T04:31:32.460Z,74.36
2022-08-29T04:32:34.714Z,73.89
2022-08-29T04:33:37.270Z,73.60
2022-08-29T04:34:39.133Z,73.51
2022-08-29T04:35:41.039Z,74.06
2022-08-29T04:36:44.406Z,73.70
2022-08-29T04:37:47.225Z,73.49
2022-08-29T04:38:49.339Z,73.38
2022-08-29T04:39:52.462Z,73.34
2022-08-29T04:40:54.658Z,73.12
2022-08-29T04:41:56.699Z,72.98
2022-08-29T04:42:58.766Z,72.83
2022-08-29T04:44:01.126Z,72.97
2022-08-29T04:45:05.185Z,73.02
2022-08-29T04:46:07.877Z,72.73
2022-08-29T04:47:11.819Z,72.66
2022-08-29T04:48:14.475Z,72.40
2022-08-29T04:49:16.582Z,72.23
2022-08-29T04:50:22.696Z,72.13
2022-08-29T04:51:26.214Z,72.11
2022-08-29T04:52:28.351Z,72.09
2022-08-29T04:53:30.426Z,71.84
2022-08-29T04:54:32.395Z,71.65
2022-08-29T04:55:34.960Z,71.39
2022-08-29T04:56:43.643Z,71.34
2022-08-29T04:57:43.491Z,71.36
2022-08-29T04:58:46.351Z,71.38
2022-08-29T04:59:57.581Z,71.54
2022-08-29T05:01:00.787Z,71.29
2022-08-29T05:02:02.864Z,70.82
2022-08-29T05:03:04.975Z,70.40
2022-08-29T05:04:10.213Z,70.33
2022-08-29T05:05:14.175Z,70.31
2022-08-29T05:06:22.501Z,70.01
2022-08-29T05:07:26.055Z,69.58
2022-08-29T05:08:29.558Z,69.90
2022-08-29T05:09:32.730Z,69.64
2022-08-29T05:10:37.272Z,69.61
2022-08-29T05:11:39.533Z,69.52
2022-08-29T05:12:42.743Z,69.37
2022-08-29T05:13:46.143Z,69.38
2022-08-29T05:14:48.237Z,68.98
2022-08-29T05:15:50.988Z,68.91
2022-08-29T05:16:53.238Z,69.11
2022-08-29T05:17:55.235Z,69.19
2022-08-29T05:18:59.444Z,69.00
2022-08-29T05:20:03.809Z,68.99
2022-08-29T05:21:06.318Z,68.73
2022-08-29T05:22:09.449Z,68.73
2022-08-29T05:23:13.042Z,68.57
2022-08-29T05:24:16.835Z,68.50
2022-08-29T05:25:18.966Z,68.39
2022-08-29T05:26:21.880Z,68.00
2022-08-29T05:27:25.025Z,67.88
2022-08-29T05:28:28.398Z,67.98
2022-08-29T05:29:30.543Z,67.72
2022-08-29T05:30:35.093Z,67.79
2022-08-29T05:31:39.406Z,67.69
2022-08-29T05:32:41.856Z,67.50
2022-08-29T05:33:44.003Z,66.87
2022-08-29T05:34:47.969Z,67.02
2022-08-29T05:35:50.138Z,66.87
2022-08-29T05:36:52.704Z,66.71
2022-08-29T05:37:54.760Z,66.52
2022-08-29T05:38:57.220Z,66.35
2022-08-29T05:39:59.209Z,66.08
2022-08-29T05:41:01.685Z,66.11
2022-08-29T05:42:06.620Z,66.01
2022-08-29T05:43:09.728Z,65.70
2022-08-29T05:44:12.448Z,65.81
2022-08-29T05:45:14.605Z,65.40
2022-08-29T05:46:20.209Z,65.43
2022-08-29T05:47:22.726Z,65.44
2022-08-29T05:48:24.837Z,65.29
2022-08-29T05:49:27.157Z,64.71
2022-08-29T05:50:30.926Z,64.51
2022-08-29T05:51:39.356Z,64.30
2022-08-29T05:52:38.614Z,63.90
2022-08-29T05:53:40.687Z,63.90
2022-08-29T05:54:43.942Z,63.53
2022-08-29T05:55:46.012Z,63.16
2022-08-29T05:56:49.786Z,63.30
2022-08-29T05:57:53.561Z,63.02
2022-08-29T05:58:56.006Z,62.56
2022-08-29T05:59:58.046Z,62.05
2022-08-29T06:01:00.285Z,62.33
2022-08-29T06:02:07.422Z,62.45
2022-08-29T06:03:12.736Z,62.23
2022-08-29T06:04:15.245Z,62.09
2022-08-29T06:05:18.697Z,62.37
2022-08-29T06:06:23.415Z,62.25
2022-08-29T06:07:26.189Z,62.34
2022-08-29T06:08:28.248Z,62.31
2022-08-29T06:09:30.502Z,62.21
2022-08-29T06:10:33.043Z,62.18
2022-08-29T06:11:35.744Z,62.27
2022-08-29T06:12:38.238Z,61.78
2022-08-29T06:13:40.301Z,61.81
2022-08-29T06:14:42.534Z,61.75
2022-08-29T06:15:47.016Z,61.80
2022-08-29T06:16:50.436Z,61.74
2022-08-29T06:17:52.524Z,61.57
2022-08-29T06:18:56.519Z,61.72
2022-08-29T06:19:58.499Z,61.71
2022-08-29T06:21:04.816Z,62.24
2022-08-29T06:22:10.177Z,61.77
2022-08-29T06:23:13.535Z,61.11
2022-08-29T06:24:17.534Z,61.13
2022-08-29T06:25:38.444Z,61.03
2022-08-29T06:26:24.369Z,60.84
2022-08-29T06:27:26.426Z,61.07
2022-08-29T06:28:31.450Z,60.98
2022-08-29T06:29:38.454Z,61.37
2022-08-29T06:30:39.023Z,60.45
2022-08-29T06:31:41.138Z,60.80
2022-08-29T06:32:43.202Z,60.75
2022-08-29T06:33:45.253Z,60.36
2022-08-29T06:34:47.303Z,60.01
2022-08-29T06:35:49.806Z,60.03
2022-08-29T06:36:52.207Z,60.62
2022-08-29T06:37:54.271Z,59.37
2022-08-29T06:38:58.617Z,59.59
2022-08-29T06:40:00.679Z,60.48
2022-08-29T06:41:09.239Z,60.12
2022-08-29T06:42:11.826Z,60.00
2022-08-29T06:43:15.515Z,59.98
2022-08-29T06:44:17.583Z,60.15
2022-08-29T06:45:19.632Z,60.52
2022-08-29T06:46:32.516Z,60.59
2022-08-29T06:47:34.735Z,60.72
2022-08-29T06:48:37.874Z,60.17
2022-08-29T06:49:42.984Z,61.32
2022-08-29T06:50:45.746Z,60.47
2022-08-29T06:51:54.286Z,60.11
2022-08-29T06:52:55.758Z,58.91
2022-08-29T06:54:00.857Z,58.34
2022-08-29T06:55:03.925Z,58.56
2022-08-29T06:56:11.577Z,58.83
2022-08-29T06:57:12.743Z,58.83
2022-08-29T06:58:15.384Z,58.74
2022-08-29T06:59:19.722Z,58.64
2022-08-29T07:00:22.911Z,58.58
2022-08-29T07:01:25.399Z,58.16
2022-08-29T07:02:28.076Z,57.65
2022-08-29T07:03:30.174Z,57.79
2022-08-29T07:04:32.218Z,57.93
2022-08-29T07:05:34.727Z,58.62
2022-08-29T07:06:37.329Z,58.74
2022-08-29T07:07:39.491Z,59.08
2022-08-29T07:08:53.261Z,58.52
2022-08-29T07:09:46.479Z,58.74
2022-08-29T07:10:48.816Z,56.84
2022-08-29T07:11:50.853Z,56.84
2022-08-29T07:12:53.331Z,57.78
2022-08-29T07:13:58.174Z,56.59
2022-08-29T07:15:00.801Z,56.19
2022-08-29T07:16:05.101Z,56.17
2022-08-29T07:17:08.021Z,56.00
2022-08-29T07:18:10.156Z,56.23
2022-08-29T07:19:12.097Z,55.78
2022-08-29T07:20:16.764Z,55.93
2022-08-29T07:21:22.547Z,55.50
2022-08-29T07:22:24.685Z,55.25
2022-08-29T07:23:26.663Z,55.23
2022-08-29T07:24:30.144Z,55.37
2022-08-29T07:25:33.126Z,55.05
2022-08-29T07:26:41.863Z,55.44
2022-08-29T07:27:53.376Z,54.96
2022-08-29T07:28:56.580Z,54.20
2022-08-29T07:29:59.788Z,54.13
2022-08-29T07:31:04.348Z,54.28
2022-08-29T07:32:08.417Z,53.92
2022-08-29T07:33:13.436Z,51.43
2022-08-29T07:34:20.436Z,50.85
2022-08-29T07:35:30.098Z,52.31
2022-08-29T07:36:26.021Z,52.86
2022-08-29T07:37:27.989Z,50.83
2022-08-29T07:38:32.167Z,51.98
2022-08-29T07:39:36.637Z,50.35
2022-08-29T07:40:38.880Z,49.99
2022-08-29T07:41:44.055Z,50.86
2022-08-29T07:42:46.743Z,50.23
2022-08-29T07:43:49.165Z,51.11
2022-08-29T07:44:51.237Z,51.28
2022-08-29T07:45:53.510Z,51.46
2022-08-29T07:46:58.935Z,50.97
2022-08-29T07:48:02.695Z,49.06
2022-08-29T07:49:07.738Z,48.76
2022-08-29T07:50:13.262Z,48.62
2022-08-29T07:51:18.479Z,48.57
2022-08-29T07:52:25.944Z,48.59
2022-08-29T07:53:28.047Z,48.38
2022-08-29T07:54:30.400Z,49.44
2022-08-29T07:55:32.966Z,49.59
2022-08-29T07:56:40.781Z,50.07
2022-08-29T07:57:43.050Z,50.22
2022-08-29T07:58:45.936Z,48.88
2022-08-29T07:59:48.433Z,49.37
2022-08-29T08:00:51.172Z,48.00
2022-08-29T08:01:55.079Z,48.96
2022-08-29T08:02:57.266Z,48.81
2022-08-29T08:03:59.605Z,45.92
2022-08-29T08:05:01.658Z,45.68
2022-08-29T08:06:07.261Z,45.66
2022-08-29T08:07:13.600Z,46.11
2022-08-29T08:08:15.211Z,46.52
2022-08-29T08:09:17.032Z,47.19
2022-08-29T08:10:20.055Z,45.98
2022-08-29T08:11:24.016Z,46.63
2022-08-29T08:12:26.131Z,46.88
2022-08-29T08:13:28.210Z,46.13
2022-08-29T08:14:35.070Z,45.99
2022-08-29T08:15:36.122Z,46.29
2022-08-29T08:16:38.333Z,45.00
2022-08-29T08:17:44.204Z,44.84
2022-08-29T08:18:48.914Z,44.25
2022-08-29T08:19:54.108Z,44.25
2022-08-29T08:20:56.445Z,44.41
2022-08-29T08:21:59.602Z,44.05
2022-08-29T08:23:01.698Z,44.75
2022-08-29T08:24:04.436Z,44.76
2022-08-29T08:25:07.800Z,45.74
2022-08-29T08:26:12.108Z,43.96
2022-08-29T08:27:14.743Z,45.12
2022-08-29T08:28:16.977Z,44.28
2022-08-29T08:29:19.672Z,45.33
2022-08-29T08:30:23.147Z,43.89
2022-08-29T08:31:27.370Z,44.14
2022-08-29T08:32:32.369Z,44.34
2022-08-29T08:33:37.390Z,43.54
2022-08-29T08:34:39.612Z,42.90
2022-08-29T08:35:42.197Z,42.99
2022-08-29T08:36:45.009Z,42.76
2022-08-29T08:37:47.071Z,42.84
2022-08-29T08:38:51.280Z,43.48
2022-08-29T08:39:57.120Z,43.03
2022-08-29T08:41:27.066Z,42.80
2022-08-29T08:42:42.776Z,43.86
2022-08-29T08:43:57.454Z,43.24
2022-08-29T08:45:15.351Z,42.17
2022-08-29T08:46:28.680Z,42.41
2022-08-29T08:47:40.504Z,42.05
2022-08-29T08:48:44.717Z,41.35
2022-08-29T08:49:50.396Z,42.07
2022-08-29T08:51:08.426Z,42.40
2022-08-29T08:52:14.089Z,42.48
2022-08-29T08:53:19.745Z,43.00
2022-08-29T08:54:25.395Z,42.84
2022-08-29T08:55:50.116Z,41.89
2022-08-29T08:57:01.376Z,41.23
2022-08-29T08:58:05.165Z,41.84
2022-08-29T08:59:13.816Z,41.77
2022-08-29T09:00:16.729Z,40.88
2022-08-29T09:01:22.713Z,42.68
2022-08-29T09:02:46.623Z,41.55
2022-08-29T09:04:05.623Z,40.73
2022-08-29T09:05:30.379Z,40.82
2022-08-29T09:06:39.813Z,40.90
2022-08-29T09:08:03.545Z,40.52
2022-08-29T09:09:44.943Z,41.48
2022-08-29T09:11:02.359Z,39.41
2022-08-29T09:12:20.783Z,39.08
2022-08-29T09:15:03.089Z,39.01
2022-08-29T09:16:09.541Z,39.43
2022-08-29T09:17:18.370Z,38.20
2022-08-29T09:18:24.250Z,38.32
2022-08-29T09:19:27.110Z,38.48
2022-08-29T09:20:32.520Z,38.88
2022-08-29T09:21:42.062Z,39.37
2022-08-29T09:22:45.746Z,39.86
2022-08-29T09:23:51.474Z,39.88
2022-08-29T09:25:03.175Z,39.50
2022-08-29T09:26:06.236Z,40.84
2022-08-29T09:27:30.974Z,38.21
2022-08-29T09:28:33.804Z,38.18
2022-08-29T09:29:36.617Z,37.86
2022-08-29T09:30:41.684Z,38.32
2022-08-29T09:31:43.887Z,38.32
2022-08-29T09:33:01.920Z,37.08
2022-08-29T09:34:12.259Z,37.22
2022-08-29T09:35:27.331Z,36.55
2022-08-29T09:36:47.913Z,37.69
2022-08-29T09:38:19.258Z,37.35
2022-08-29T09:39:31.552Z,37.13
2022-08-29T09:41:02.690Z,37.53
2022-08-29T09:42:14.412Z,37.33
2022-08-29T09:43:27.101Z,37.71
2022-08-29T09:44:34.777Z,38.26
2022-08-29T09:45:36.899Z,37.52
2022-08-29T09:46:41.406Z,37.67
2022-08-29T09:47:44.079Z,37.73
2022-08-29T09:48:55.778Z,37.37
2022-08-29T09:50:13.683Z,37.27
2022-08-29T09:51:28.688Z,37.64
2022-08-29T09:52:31.505Z,37.92
2022-08-29T09:53:33.629Z,37.31
2022-08-29T09:54:35.793Z,36.68
2022-08-29T09:55:42.519Z,37.04
2022-08-29T09:57:06.497Z,37.21
2022-08-29T09:58:11.686Z,37.29
2022-08-29T09:59:32.116Z,36.86
2022-08-29T10:00:40.230Z,37.59
2022-08-29T10:01:42.516Z,36.58
2022-08-29T10:02:50.347Z,36.63
2022-08-29T10:03:58.273Z,37.09
2022-08-29T10:05:05.595Z,37.71
2022-08-29T10:06:16.113Z,36.10
2022-08-29T10:07:24.949Z,35.86
2022-08-29T10:08:30.623Z,35.72
2022-08-29T10:09:32.767Z,35.96
2022-08-29T10:10:36.794Z,36.29
2022-08-29T10:11:50.882Z,34.96
2022-08-29T10:13:12.569Z,34.96
2022-08-29T10:14:18.751Z,35.06
2022-08-29T10:15:49.541Z,34.74
2022-08-29T10:16:47.295Z,35.55
2022-08-29T10:18:05.247Z,34.62
2022-08-29T10:19:13.343Z,35.71
2022-08-29T10:20:16.898Z,34.94
2022-08-29T10:21:28.336Z,35.17
2022-08-29T10:22:49.226Z,34.12
2022-08-29T10:24:00.719Z,34.74
2022-08-29T10:25:06.470Z,34.37
2022-08-29T10:26:13.504Z,34.55
2022-08-29T10:27:28.361Z,33.59
2022-08-29T10:28:52.581Z,33.02
2022-08-29T10:29:58.335Z,32.87
2022-08-29T10:31:13.160Z,34.11
2022-08-29T10:32:42.686Z,34.72
2022-08-29T10:34:00.508Z,34.07
2022-08-29T10:35:19.351Z,33.63
2022-08-29T10:36:34.802Z,33.53
2022-08-29T10:38:11.585Z,33.82
2022-08-29T10:39:26.263Z,33.82
2022-08-29T10:40:43.430Z,32.90
2022-08-29T10:41:50.645Z,33.80
2022-08-29T10:42:59.134Z,33.93
2022-08-29T10:44:23.924Z,32.48
2022-08-29T10:45:35.708Z,32.59
2022-08-29T10:47:04.165Z,32.14
2022-08-29T10:48:12.819Z,31.69
2022-08-29T10:49:30.836Z,31.36
2022-08-29T10:50:44.533Z,31.42
2022-08-29T10:51:50.660Z,31.73
2022-08-29T10:53:03.385Z,31.66
2022-08-29T10:54:15.339Z,31.93
2022-08-29T10:55:46.421Z,31.90
2022-08-29T10:56:51.378Z,31.25
2022-08-29T10:58:14.231Z,31.80
2022-08-29T10:59:50.717Z,32.23
2022-08-29T11:00:56.580Z,31.68
2022-08-29T11:03:18.667Z,31.86
2022-08-29T11:04:31.145Z,31.98
2022-08-29T11:05:36.782Z,30.90
2022-08-29T11:06:42.645Z,30.89
2022-08-29T11:09:12.316Z,32.17
2022-08-29T11:10:19.578Z,31.21
2022-08-29T11:11:25.802Z,30.83
2022-08-29T11:12:40.018Z,30.63
2022-08-29T11:13:46.568Z,30.51
2022-08-29T11:16:23.065Z,30.14
2022-08-29T11:17:29.126Z,29.53
2022-08-29T11:18:43.847Z,28.69
2022-08-29T11:20:04.834Z,29.39
2022-08-29T11:21:16.466Z,29.90
2022-08-29T11:22:29.952Z,30.82
2022-08-29T11:23:47.396Z,29.32
2022-08-29T11:24:58.811Z,28.91
2022-08-29T11:26:04.468Z,28.94
2022-08-29T11:27:25.266Z,29.28
2022-08-29T11:28:48.853Z,29.80
2022-08-29T11:29:55.972Z,29.58
2022-08-29T11:31:13.577Z,29.85
2022-08-29T11:32:28.296Z,28.45
2022-08-29T11:33:39.914Z,28.82
2022-08-29T11:34:54.487Z,28.65
2022-08-29T11:36:35.482Z,28.81
2022-08-29T11:37:49.013Z,28.98
2022-08-29T11:38:57.380Z,26.12
2022-08-29T11:41:38.281Z,26.66
2022-08-29T11:42:51.849Z,26.04
2022-08-29T11:43:51.460Z,25.71
2022-08-29T11:44:57.043Z,25.59
2022-08-29T11:46:03.201Z,26.09
2022-08-29T11:47:31.716Z,26.11
2022-08-29T11:48:41.241Z,25.46
2022-08-29T11:49:47.324Z,25.91
2022-08-29T11:50:50.289Z,26.08
2022-08-29T11:51:56.296Z,26.58
2022-08-29T11:53:11.782Z,26.08
2022-08-29T11:54:30.239Z,25.67
2022-08-29T11:55:41.392Z,26.03
2022-08-29T11:56:45.991Z,26.30
2022-08-29T11:57:51.395Z,27.24
2022-08-29T11:58:56.567Z,27.25
2022-08-29T12:00:00.191Z,26.88
2022-08-29T12:01:02.638Z,26.39
2022-08-29T12:02:08.133Z,27.05
2022-08-29T12:03:35.482Z,26.88
2022-08-29T12:04:56.678Z,27.10
2022-08-29T12:06:19.697Z,26.46
2022-08-29T12:07:25.349Z,26.06
2022-08-29T12:08:37.170Z,25.84
2022-08-29T12:09:44.430Z,25.75
2022-08-29T12:10:54.302Z,25.89
2022-08-29T12:12:06.022Z,26.24
2022-08-29T12:13:08.185Z,25.77
2022-08-29T12:14:14.918Z,25.95
2022-08-29T12:15:35.903Z,26.24
2022-08-29T12:16:51.377Z,26.62
2022-08-29T12:18:02.421Z,27.15
2022-08-29T12:19:04.470Z,27.64
2022-08-29T12:20:10.694Z,28.02
2022-08-29T12:21:40.960Z,28.48
2022-08-29T12:23:05.926Z,27.87
2022-08-29T12:24:26.837Z,27.42
2022-08-29T12:26:59.740Z,28.04
2022-08-29T12:28:06.505Z,28.40
2022-08-29T12:29:31.066Z,28.06
2022-08-29T12:30:42.638Z,28.23
2022-08-29T12:32:22.477Z,28.16
2022-08-29T12:33:43.713Z,28.29
2022-08-29T12:35:14.036Z,28.51
2022-08-29T12:36:31.879Z,28.27
2022-08-29T12:37:57.254Z,27.86
2022-08-29T12:39:19.856Z,28.00
2022-08-29T12:40:29.535Z,27.67
2022-08-29T12:41:45.011Z,28.60
2022-08-29T12:42:57.174Z,28.28
2022-08-29T12:44:04.021Z,28.15
2022-08-29T12:45:13.985Z,29.08
2022-08-29T12:46:24.238Z,28.67
2022-08-29T12:47:29.914Z,29.21
2022-08-29T12:48:36.064Z,28.74
2022-08-29T12:49:48.322Z,28.77
2022-08-29T12:50:51.791Z,28.71
2022-08-29T12:51:57.288Z,28.80
2022-08-29T12:53:02.944Z,29.17
2022-08-29T12:54:06.559Z,29.15
2022-08-29T12:55:28.957Z,28.74
2022-08-29T12:56:33.637Z,28.32
2022-08-29T12:57:37.069Z,28.42
2022-08-29T12:58:42.480Z,28.38
2022-08-29T12:59:51.516Z,28.32
2022-08-29T13:00:54.020Z,28.37
2022-08-29T13:01:59.574Z,28.49
2022-08-29T13:03:15.175Z,27.83
2022-08-29T13:04:18.287Z,27.87
2022-08-29T13:05:28.399Z,27.90
2022-08-29T13:06:29.581Z,27.34
2022-08-29T13:07:31.754Z,27.87
2022-08-29T13:08:35.850Z,27.94
2022-08-29T13:09:41.564Z,28.12
2022-08-29T13:11:02.363Z,28.22
2022-08-29T13:12:14.535Z,28.16
2022-08-29T13:13:19.725Z,28.62
2022-08-29T13:14:21.862Z,28.43
2022-08-29T13:15:29.669Z,28.07
2022-08-29T13:16:31.651Z,27.82
2022-08-29T13:17:36.859Z,28.04
2022-08-29T13:18:53.924Z,28.10
2022-08-29T13:20:04.533Z,28.50
2022-08-29T13:21:19.274Z,28.43
2022-08-29T13:22:21.409Z,28.00
2022-08-29T13:23:34.267Z,27.95
2022-08-29T13:24:36.288Z,27.69
2022-08-29T13:26:12.568Z,27.78
2022-08-29T13:27:18.219Z,27.82
2022-08-29T13:28:39.249Z,27.76
2022-08-29T13:29:42.222Z,27.48
2022-08-29T13:30:48.678Z,27.98
2022-08-29T13:32:09.152Z,27.77
2022-08-29T13:33:27.018Z,27.97
2022-08-29T13:34:28.598Z,28.28
2022-08-29T13:35:32.801Z,27.90
2022-08-29T13:36:54.870Z,28.23
2022-08-29T13:38:19.120Z,28.10
2022-08-29T13:39:24.778Z,28.04
2022-08-29T13:40:40.264Z,28.34
2022-08-29T13:41:51.745Z,27.99
2022-08-29T13:42:54.158Z,27.85
2022-08-29T13:43:56.164Z,28.28
2022-08-29T13:45:01.698Z,28.13
2022-08-29T13:46:08.876Z,28.50
2022-08-29T13:47:17.178Z,28.23
2022-08-29T13:48:19.553Z,28.70
2022-08-29T13:49:24.819Z,29.40
2022-08-29T13:50:28.964Z,29.33
2022-08-29T13:51:31.018Z,29.47
2022-08-29T13:52:33.111Z,29.96
2022-08-29T13:53:35.293Z,30.23
2022-08-29T13:54:38.389Z,30.61
2022-08-29T13:55:41.518Z,30.38
2022-08-29T13:56:49.868Z,30.67
2022-08-29T13:57:53.860Z,30.77
2022-08-29T13:58:56.639Z,30.69
2022-08-29T13:59:59.370Z,30.94
2022-08-29T14:01:29.486Z,31.48
2022-08-29T14:02:09.378Z,31.85
2022-08-29T14:03:12.135Z,31.88
2022-08-29T14:04:36.757Z,31.54
2022-08-29T14:05:18.480Z,31.66
2022-08-29T14:06:23.637Z,31.33
2022-08-29T14:07:29.300Z,31.33
2022-08-29T14:08:31.297Z,31.97
2022-08-29T14:09:39.647Z,32.47
2022-08-29T14:10:42.715Z,32.31
2022-08-29T14:11:45.357Z,32.22
2022-08-29T14:12:47.515Z,31.73
2022-08-29T14:13:49.282Z,31.87
2022-08-29T14:14:51.589Z,32.08
2022-08-29T14:15:54.273Z,31.73
2022-08-29T14:16:57.623Z,32.52
2022-08-29T14:17:59.880Z,32.48
2022-08-29T14:19:02.437Z,32.22
2022-08-29T14:20:06.244Z,32.22
2022-08-29T14:21:08.763Z,32.60
2022-08-29T14:22:12.081Z,32.64
2022-08-29T14:23:15.169Z,32.99
2022-08-29T14:24:17.262Z,32.97
2022-08-29T14:25:19.689Z,33.57